createdAt,value
2023-05-07T00:00:01.246Z,15.70
2023-05-07T00:02:27.784Z,15.60
2023-05-07T00:04:54.317Z,15.48
2023-05-07T00:07:20.830Z,15.39
2023-05-07T00:09:47.257Z,15.54
2023-05-07T00:12:13.665Z,15.49
2023-05-07T00:14:40.111Z,15.43
2023-05-07T00:17:06.510Z,15.30
2023-05-07T00:19:32.954Z,15.36
2023-05-07T00:21:59.632Z,15.42
2023-05-07T00:24:26.202Z,15.45
2023-05-07T00:26:56.927Z,15.48
2023-05-07T00:29:23.362Z,15.46
2023-05-07T00:31:50.945Z,15.45
2023-05-07T00:34:17.439Z,15.49
2023-05-07T00:36:43.867Z,15.53
2023-05-07T00:39:10.240Z,15.50
2023-05-07T00:41:36.637Z,15.49
2023-05-07T00:44:03.328Z,15.54
2023-05-07T00:46:31.858Z,15.52
2023-05-07T00:48:58.928Z,15.51
2023-05-07T00:51:28.248Z,15.51
2023-05-07T00:53:54.851Z,15.50
2023-05-07T00:56:23.266Z,15.46
2023-05-07T00:58:50.454Z,15.44
2023-05-07T01:01:17.713Z,15.42
2023-05-07T01:03:44.374Z,15.40
2023-05-07T01:06:13.642Z,15.39
2023-05-07T01:08:41.979Z,15.39
2023-05-07T01:11:09.482Z,15.43
2023-05-07T01:13:37.626Z,15.40
2023-05-07T01:16:04.829Z,15.39
2023-05-07T01:18:31.511Z,15.33
2023-05-07T01:20:59.818Z,15.33
2023-05-07T01:23:28.131Z,15.37
2023-05-07T01:25:55.265Z,15.43
2023-05-07T01:28:21.873Z,15.47
2023-05-07T01:30:57.553Z,15.49
2023-05-07T01:33:25.811Z,15.49
2023-05-07T01:35:54.884Z,15.51
2023-05-07T01:38:24.708Z,15.53
2023-05-07T01:40:51.817Z,15.54
2023-05-07T01:43:18.759Z,15.56
2023-05-07T01:45:46.379Z,15.56
2023-05-07T01:48:15.296Z,15.57
2023-05-07T01:50:43.774Z,15.55
2023-05-07T01:53:10.185Z,15.51
2023-05-07T01:55:37.859Z,15.52
2023-05-07T01:58:04.891Z,15.46
2023-05-07T02:00:32.556Z,15.46
2023-05-07T02:02:59.435Z,15.47
2023-05-07T02:05:26.081Z,15.51
2023-05-07T02:07:53.483Z,15.51
2023-05-07T02:10:19.888Z,15.57
2023-05-07T02:12:46.383Z,15.56
2023-05-07T02:15:12.970Z,15.48
2023-05-07T02:18:02.365Z,15.47
2023-05-07T02:20:29.041Z,15.42
2023-05-07T02:22:55.517Z,15.42
2023-05-07T02:25:22.098Z,15.41
2023-05-07T02:27:48.582Z,15.39
2023-05-07T02:30:15.879Z,15.37
2023-05-07T02:32:42.323Z,15.34
2023-05-07T02:35:09.102Z,15.37
2023-05-07T02:37:35.878Z,15.35
2023-05-07T02:40:02.296Z,15.31
2023-05-07T02:42:28.786Z,15.21
2023-05-07T02:44:55.165Z,15.24
2023-05-07T02:47:21.842Z,15.21
2023-05-07T02:49:48.443Z,15.14
2023-05-07T02:52:14.849Z,15.14
2023-05-07T02:54:41.254Z,15.10
2023-05-07T02:57:07.794Z,15.11
2023-05-07T02:59:34.174Z,15.03
2023-05-07T03:02:00.528Z,15.02
2023-05-07T03:04:27.021Z,15.04
2023-05-07T03:06:53.517Z,15.04
2023-05-07T03:09:20.278Z,15.04
2023-05-07T03:11:47.008Z,15.06
2023-05-07T03:14:13.471Z,15.04
2023-05-07T03:16:40.575Z,15.04
2023-05-07T03:19:07.181Z,15.05
2023-05-07T03:21:34.778Z,15.01
2023-05-07T03:24:01.691Z,14.97
2023-05-07T03:26:28.183Z,14.95
2023-05-07T03:28:56.378Z,14.94
2023-05-07T03:31:22.943Z,14.93
2023-05-07T03:33:57.646Z,14.93
2023-05-07T03:36:25.021Z,14.94
2023-05-07T03:38:51.429Z,15.00
2023-05-07T03:41:17.892Z,15.01
2023-05-07T03:43:44.365Z,14.90
2023-05-07T03:46:10.819Z,14.72
2023-05-07T03:48:37.300Z,14.59
2023-05-07T03:51:03.808Z,14.55
2023-05-07T03:53:30.597Z,14.63
2023-05-07T03:55:57.091Z,14.68
2023-05-07T03:58:23.589Z,14.74
2023-05-07T04:00:50.172Z,14.74
2023-05-07T04:03:16.847Z,14.68
2023-05-07T04:05:43.273Z,14.67
2023-05-07T04:08:09.680Z,14.67
2023-05-07T04:10:36.061Z,14.71
2023-05-07T04:13:02.700Z,14.75
2023-05-07T04:15:29.135Z,14.75
2023-05-07T04:17:55.634Z,14.73
2023-05-07T04:20:22.082Z,14.76
2023-05-07T04:22:48.458Z,14.77
2023-05-07T04:25:14.965Z,14.75
2023-05-07T04:27:41.751Z,14.76
2023-05-07T04:30:08.749Z,14.76
2023-05-07T04:32:35.485Z,14.79
2023-05-07T04:35:02.128Z,14.73
2023-05-07T04:37:28.635Z,14.62
2023-05-07T04:39:54.987Z,14.61
2023-05-07T04:42:21.361Z,14.54
2023-05-07T04:44:47.704Z,14.52
2023-05-07T04:47:14.269Z,14.53
2023-05-07T04:49:40.906Z,14.67
2023-05-07T04:52:07.293Z,14.70
2023-05-07T04:54:33.687Z,14.67
2023-05-07T04:57:00.143Z,14.73
2023-05-07T04:59:26.568Z,14.80
2023-05-07T05:01:53.123Z,14.89
2023-05-07T05:04:19.768Z,14.98
2023-05-07T05:06:46.214Z,15.00
2023-05-07T05:09:12.896Z,14.92
2023-05-07T05:11:39.969Z,14.97
2023-05-07T05:14:06.475Z,14.97
2023-05-07T05:16:33.033Z,14.98
2023-05-07T05:19:00.640Z,15.04
2023-05-07T05:21:27.331Z,15.05
2023-05-07T05:23:53.801Z,15.17
2023-05-07T05:26:22.274Z,15.23
2023-05-07T05:28:48.784Z,15.34
2023-05-07T05:31:15.244Z,15.35
2023-05-07T05:33:41.754Z,15.37
2023-05-07T05:36:10.647Z,15.38
2023-05-07T05:38:37.346Z,15.45
2023-05-07T05:41:04.622Z,15.54
2023-05-07T05:43:31.225Z,15.62
2023-05-07T05:45:58.085Z,15.64
2023-05-07T05:48:24.851Z,15.65
2023-05-07T05:50:51.264Z,15.71
2023-05-07T05:53:17.748Z,15.73
2023-05-07T05:55:44.794Z,15.77
2023-05-07T05:58:11.321Z,15.85
2023-05-07T06:00:37.799Z,15.76
2023-05-07T06:03:04.754Z,15.74
2023-05-07T06:05:31.307Z,15.76
2023-05-07T06:07:57.749Z,15.78
2023-05-07T06:10:25.025Z,15.85
2023-05-07T06:12:51.640Z,15.91
2023-05-07T06:15:18.175Z,15.95
2023-05-07T06:17:44.689Z,16.06
2023-05-07T06:20:11.752Z,16.14
2023-05-07T06:22:38.270Z,16.26
2023-05-07T06:25:05.059Z,16.33
2023-05-07T06:27:31.550Z,16.39
2023-05-07T06:29:57.939Z,16.46
2023-05-07T06:32:24.363Z,16.54
2023-05-07T06:34:50.842Z,16.54
2023-05-07T06:37:17.312Z,16.48
2023-05-07T06:39:43.720Z,16.62
2023-05-07T06:42:10.332Z,16.69
2023-05-07T06:44:36.679Z,16.71
2023-05-07T06:47:03.045Z,16.69
2023-05-07T06:49:29.555Z,16.74
2023-05-07T06:51:56.410Z,16.80
2023-05-07T06:54:24.411Z,16.83
2023-05-07T06:56:51.163Z,16.97
2023-05-07T06:59:17.674Z,17.03
2023-05-07T07:01:44.157Z,17.14
2023-05-07T07:04:10.747Z,17.31
2023-05-07T07:06:37.213Z,17.38
2023-05-07T07:09:03.661Z,17.48
2023-05-07T07:11:30.019Z,17.59
2023-05-07T07:13:56.391Z,17.64
2023-05-07T07:16:23.238Z,17.77
2023-05-07T07:18:49.679Z,17.91
2023-05-07T07:21:16.081Z,18.03
2023-05-07T07:23:42.550Z,18.15
2023-05-07T07:26:09.210Z,18.25
2023-05-07T07:28:35.596Z,18.18
2023-05-07T07:31:02.087Z,18.14
2023-05-07T07:33:28.581Z,18.17
2023-05-07T07:35:56.379Z,18.26
2023-05-07T07:38:22.743Z,18.36
2023-05-07T07:40:49.231Z,18.43
2023-05-07T07:43:15.849Z,18.51
2023-05-07T07:45:42.889Z,18.63
2023-05-07T07:48:09.419Z,18.73
2023-05-07T07:50:44.459Z,18.77
2023-05-07T07:53:12.116Z,18.83
2023-05-07T07:55:41.772Z,18.91
2023-05-07T07:58:08.427Z,19.06
2023-05-07T08:00:35.069Z,19.22
2023-05-07T08:03:02.279Z,19.33
2023-05-07T08:05:28.983Z,19.44
2023-05-07T08:07:55.623Z,19.61
2023-05-07T08:10:22.817Z,19.78
2023-05-07T08:12:52.391Z,19.91
2023-05-07T08:15:18.919Z,20.01
2023-05-07T08:17:45.416Z,20.03
2023-05-07T08:20:12.058Z,20.03
2023-05-07T08:22:38.784Z,20.09
2023-05-07T08:25:05.965Z,20.03
2023-05-07T08:27:32.317Z,20.12
2023-05-07T08:29:58.779Z,20.17
2023-05-07T08:32:25.224Z,20.20
2023-05-07T08:34:52.189Z,20.25
2023-05-07T08:37:18.638Z,20.29
2023-05-07T08:39:45.047Z,20.19
2023-05-07T08:42:13.720Z,20.03
2023-05-07T08:44:40.980Z,19.97
2023-05-07T08:47:08.655Z,20.05
2023-05-07T08:49:35.986Z,20.00
2023-05-07T08:52:02.786Z,20.10
2023-05-07T08:54:30.255Z,20.14
2023-05-07T08:56:56.682Z,20.19
2023-05-07T08:59:23.239Z,20.23
2023-05-07T09:01:49.950Z,20.37
2023-05-07T09:04:16.681Z,20.51
2023-05-07T09:06:43.355Z,20.57
2023-05-07T09:09:09.806Z,20.64
2023-05-07T09:11:36.264Z,20.77
2023-05-07T09:14:03.723Z,20.93
2023-05-07T09:16:31.881Z,20.89
2023-05-07T09:23:10.718Z,20.95
2023-05-07T09:25:37.596Z,21.12
2023-05-07T09:28:05.739Z,21.31
2023-05-07T09:30:33.254Z,21.38
2023-05-07T09:33:01.254Z,21.41
2023-05-07T09:35:28.526Z,21.53
2023-05-07T09:37:56.920Z,21.65
2023-05-07T09:40:28.508Z,21.58
2023-05-07T09:42:55.346Z,21.61
2023-05-07T09:45:29.138Z,21.43
2023-05-07T09:47:59.643Z,21.57
2023-05-07T09:50:31.388Z,21.54
2023-05-07T09:52:58.323Z,21.66
2023-05-07T09:55:24.941Z,21.70
2023-05-07T09:57:53.368Z,21.77
2023-05-07T10:00:22.202Z,21.82
2023-05-07T10:02:53.792Z,21.84
2023-05-07T10:05:21.724Z,22.05
2023-05-07T10:07:48.953Z,22.27
2023-05-07T10:10:18.882Z,22.34
2023-05-07T10:12:46.417Z,22.34
2023-05-07T10:15:13.591Z,22.20
2023-05-07T10:17:40.832Z,22.12
2023-05-07T10:20:09.255Z,22.06
2023-05-07T10:22:45.904Z,22.18
2023-05-07T10:25:22.209Z,22.29
2023-05-07T10:27:51.090Z,22.35
2023-05-07T10:30:46.946Z,22.41
2023-05-07T10:33:16.416Z,22.37
2023-05-07T10:35:45.251Z,22.41
2023-05-07T10:38:12.060Z,22.51
2023-05-07T10:40:38.701Z,22.58
2023-05-07T10:43:08.595Z,22.62
2023-05-07T10:45:35.834Z,22.58
2023-05-07T10:48:29.405Z,22.35
2023-05-07T10:51:20.027Z,22.47
2023-05-07T10:53:46.583Z,22.70
2023-05-07T10:56:19.486Z,22.92
2023-05-07T10:58:45.970Z,23.06
2023-05-07T11:01:14.898Z,23.16
2023-05-07T11:04:28.965Z,23.25
2023-05-07T11:07:07.582Z,23.25
2023-05-07T11:09:52.342Z,23.21
2023-05-07T11:12:39.328Z,23.14
2023-05-07T11:15:13.475Z,23.23
2023-05-07T11:17:56.684Z,23.20
2023-05-07T11:20:49.045Z,23.20
2023-05-07T11:23:34.014Z,23.03
2023-05-07T11:26:05.313Z,23.25
2023-05-07T11:28:36.731Z,23.28
2023-05-07T11:31:03.999Z,23.24
2023-05-07T11:33:31.318Z,23.28
2023-05-07T11:35:58.162Z,23.28
2023-05-07T11:38:26.113Z,23.27
2023-05-07T11:41:05.250Z,23.31
2023-05-07T11:43:33.388Z,23.25
2023-05-07T11:46:12.020Z,23.20
2023-05-07T11:48:39.467Z,23.19
2023-05-07T11:51:07.553Z,23.20
2023-05-07T11:53:39.341Z,23.10
2023-05-07T11:56:10.762Z,23.12
2023-05-07T11:58:37.815Z,23.14
2023-05-07T12:01:04.561Z,23.12
2023-05-07T12:03:32.310Z,23.04
2023-05-07T12:06:02.766Z,22.93
2023-05-07T12:08:29.250Z,22.90
2023-05-07T12:10:56.250Z,22.87
2023-05-07T12:13:25.186Z,22.83
2023-05-07T12:15:56.036Z,22.84
2023-05-07T12:18:23.871Z,22.85
2023-05-07T12:20:51.393Z,22.72
2023-05-07T12:23:18.694Z,22.85
2023-05-07T12:25:48.017Z,22.81
2023-05-07T12:28:19.052Z,22.83
2023-05-07T12:30:47.920Z,22.84
2023-05-07T12:33:20.251Z,22.71
2023-05-07T12:35:48.394Z,22.77
2023-05-07T12:38:17.304Z,22.78
2023-05-07T12:40:51.902Z,22.83
2023-05-07T12:43:25.267Z,22.84
2023-05-07T12:45:54.581Z,22.82
2023-05-07T12:48:21.958Z,22.80
2023-05-07T12:50:52.726Z,22.82
2023-05-07T12:55:51.366Z,22.74
2023-05-07T12:58:24.356Z,22.71
2023-05-07T13:00:52.468Z,22.74
2023-05-07T13:03:30.598Z,22.77
2023-05-07T13:06:02.011Z,22.75
2023-05-07T13:08:31.037Z,22.76
2023-05-07T13:11:04.841Z,22.78
2023-05-07T13:13:32.906Z,22.75
2023-05-07T13:15:59.747Z,22.74
2023-05-07T13:18:27.520Z,22.69
2023-05-07T13:20:54.897Z,22.73
2023-05-07T13:23:22.078Z,22.76
2023-05-07T13:25:49.763Z,22.78
2023-05-07T13:28:16.381Z,22.85
2023-05-07T13:30:43.657Z,22.96
2023-05-07T13:33:10.562Z,23.03
2023-05-07T13:35:37.223Z,23.09
2023-05-07T13:38:03.598Z,23.12
2023-05-07T13:40:29.928Z,23.04
2023-05-07T13:42:59.539Z,23.05
2023-05-07T13:45:26.976Z,23.01
2023-05-07T13:47:53.647Z,22.97
2023-05-07T13:50:20.044Z,22.90
2023-05-07T13:52:51.726Z,22.85
2023-05-07T13:55:22.280Z,22.78
2023-05-07T13:57:48.880Z,22.70
2023-05-07T14:00:17.196Z,22.61
2023-05-07T14:02:43.835Z,22.56
2023-05-07T14:05:11.061Z,22.50
2023-05-07T14:07:37.617Z,22.47
2023-05-07T14:10:04.586Z,22.38
2023-05-07T14:12:31.248Z,22.26
2023-05-07T14:14:57.746Z,22.18
2023-05-07T14:17:26.475Z,22.02
2023-05-07T14:19:55.350Z,21.56
2023-05-07T14:22:23.598Z,21.07
2023-05-07T14:25:03.252Z,20.80
2023-05-07T14:27:32.716Z,20.48
2023-05-07T14:29:59.141Z,20.33
2023-05-07T14:32:25.522Z,20.15
2023-05-07T14:34:51.912Z,20.01
2023-05-07T14:37:20.842Z,19.93
2023-05-07T14:39:49.842Z,19.75
2023-05-07T14:42:16.530Z,19.72
2023-05-07T14:44:43.019Z,19.57
2023-05-07T14:47:09.849Z,19.43
2023-05-07T14:49:36.463Z,19.31
2023-05-07T14:52:03.068Z,19.30
2023-05-07T14:54:29.480Z,19.27
2023-05-07T14:56:56.706Z,19.17
2023-05-07T14:59:25.989Z,19.24
2023-05-07T15:01:52.676Z,19.22
2023-05-07T15:04:19.671Z,19.18
2023-05-07T15:06:49.016Z,19.32
2023-05-07T15:09:15.968Z,19.23
2023-05-07T15:11:42.296Z,19.25
2023-05-07T15:14:08.786Z,19.18
2023-05-07T15:16:35.352Z,19.31
2023-05-07T15:19:01.835Z,19.40
2023-05-07T15:21:28.511Z,19.46
2023-05-07T15:23:54.978Z,19.36
2023-05-07T15:26:21.522Z,19.20
2023-05-07T15:28:48.053Z,19.06
2023-05-07T15:31:17.389Z,19.12
2023-05-07T15:33:43.878Z,19.09
2023-05-07T15:36:10.392Z,19.17
2023-05-07T15:38:36.745Z,19.15
2023-05-07T15:41:03.693Z,19.16
2023-05-07T15:43:30.165Z,19.19
2023-05-07T15:45:57.052Z,19.15
2023-05-07T15:48:23.539Z,19.24
2023-05-07T15:50:49.940Z,19.39
2023-05-07T15:53:16.285Z,19.44
2023-05-07T15:55:44.426Z,19.41
2023-05-07T15:58:10.978Z,19.34
2023-05-07T16:00:40.713Z,19.38
2023-05-07T16:03:07.534Z,19.32
2023-05-07T16:05:34.201Z,19.14
2023-05-07T16:08:00.881Z,19.08
2023-05-07T16:10:27.627Z,19.15
2023-05-07T16:12:54.395Z,19.27
2023-05-07T16:15:20.919Z,19.35
2023-05-07T16:17:51.758Z,19.42
2023-05-07T16:20:20.077Z,19.50
2023-05-07T16:22:46.695Z,19.67
2023-05-07T16:25:14.753Z,19.58
2023-05-07T16:27:41.544Z,19.60
2023-05-07T16:30:08.832Z,19.64
2023-05-07T16:32:35.874Z,19.77
2023-05-07T16:35:02.877Z,19.75
2023-05-07T16:37:29.412Z,19.70
2023-05-07T16:39:56.582Z,19.74
2023-05-07T16:42:22.932Z,19.77
2023-05-07T16:44:49.320Z,19.85
2023-05-07T16:47:15.806Z,19.88
2023-05-07T16:49:42.297Z,19.87
2023-05-07T16:52:08.767Z,19.81
2023-05-07T16:54:38.168Z,19.73
2023-05-07T16:57:04.541Z,19.72
2023-05-07T16:59:33.328Z,19.77
2023-05-07T17:01:59.797Z,19.80
2023-05-07T17:04:26.387Z,19.80
2023-05-07T17:06:52.892Z,19.73
2023-05-07T17:09:19.367Z,19.68
2023-05-07T17:11:45.769Z,19.72
2023-05-07T17:14:12.214Z,19.65
2023-05-07T17:16:38.690Z,19.68
2023-05-07T17:19:05.186Z,19.68
2023-05-07T17:21:31.666Z,19.71
2023-05-07T17:23:58.097Z,19.74
2023-05-07T17:26:24.502Z,19.71
2023-05-07T17:28:51.168Z,19.68
2023-05-07T17:31:17.705Z,19.61
2023-05-07T17:33:44.262Z,19.63
2023-05-07T17:36:10.728Z,19.65
2023-05-07T17:38:37.144Z,19.62
2023-05-07T17:41:03.587Z,19.56
2023-05-07T17:43:30.226Z,19.53
2023-05-07T17:45:56.710Z,19.51
2023-05-07T17:48:24.395Z,19.54
2023-05-07T17:50:50.788Z,19.53
2023-05-07T17:53:17.676Z,19.53
2023-05-07T17:55:45.071Z,19.51
2023-05-07T17:58:12.198Z,19.53
2023-05-07T18:00:39.167Z,19.56
2023-05-07T18:03:05.861Z,19.60
2023-05-07T18:05:35.439Z,19.60
2023-05-07T18:08:02.022Z,19.58
2023-05-07T18:10:28.665Z,19.58
2023-05-07T18:12:55.157Z,19.54
2023-05-07T18:15:21.638Z,19.54
2023-05-07T18:17:48.158Z,19.50
2023-05-07T18:20:14.700Z,19.52
2023-05-07T18:22:41.400Z,19.54
2023-05-07T18:25:08.477Z,19.55
2023-05-07T18:27:34.937Z,19.49
2023-05-07T18:30:01.586Z,19.44
2023-05-07T18:32:28.242Z,19.40
2023-05-07T18:34:55.015Z,19.29
2023-05-07T18:37:21.887Z,19.18
2023-05-07T18:39:49.344Z,19.21
2023-05-07T18:42:15.859Z,19.14
2023-05-07T18:44:42.489Z,19.15
2023-05-07T18:47:08.851Z,19.15
2023-05-07T18:49:36.040Z,19.02
2023-05-07T18:52:02.690Z,19.02
2023-05-07T18:54:29.168Z,18.95
2023-05-07T18:56:55.570Z,18.91
2023-05-07T18:59:22.261Z,18.88
2023-05-07T19:01:48.767Z,18.79
2023-05-07T19:04:16.411Z,18.80
2023-05-07T19:06:42.949Z,18.83
2023-05-07T19:09:09.418Z,18.82
2023-05-07T19:11:35.894Z,18.81
2023-05-07T19:14:04.463Z,18.76
2023-05-07T19:16:31.282Z,18.73
2023-05-07T19:18:57.862Z,18.70
2023-05-07T19:21:25.119Z,18.63
2023-05-07T19:23:53.695Z,18.69
2023-05-07T19:26:21.177Z,18.67
2023-05-07T19:28:52.070Z,18.62
2023-05-07T19:31:26.976Z,18.58
2023-05-07T19:33:54.555Z,18.58
2023-05-07T19:36:21.110Z,18.59
2023-05-07T19:38:49.871Z,18.56
2023-05-07T19:41:16.352Z,18.51
2023-05-07T19:43:42.866Z,18.40
2023-05-07T19:46:09.255Z,18.31
2023-05-07T19:48:35.813Z,18.15
2023-05-07T19:51:02.968Z,18.07
2023-05-07T19:53:30.268Z,18.04
2023-05-07T19:56:04.599Z,17.97
2023-05-07T19:58:31.079Z,17.92
2023-05-07T20:00:57.557Z,17.89
2023-05-07T20:03:24.213Z,17.95
2023-05-07T20:05:50.896Z,18.02
2023-05-07T20:08:17.310Z,18.02
2023-05-07T20:10:43.782Z,17.97
2023-05-07T20:13:11.049Z,17.99
2023-05-07T20:15:38.396Z,18.07
2023-05-07T20:18:04.945Z,18.04
2023-05-07T20:20:32.361Z,18.06
2023-05-07T20:22:58.745Z,18.01
2023-05-07T20:25:25.452Z,18.02
2023-05-07T20:27:51.811Z,18.00
2023-05-07T20:30:20.341Z,17.95
2023-05-07T20:32:46.996Z,17.90
2023-05-07T20:35:13.649Z,17.80
2023-05-07T20:37:40.271Z,17.79
2023-05-07T20:40:08.087Z,17.76
2023-05-07T20:42:34.459Z,17.86
2023-05-07T20:45:03.385Z,17.87
2023-05-07T20:47:32.643Z,17.94
2023-05-07T20:49:59.098Z,17.92
2023-05-07T20:52:25.457Z,17.96
2023-05-07T20:54:52.264Z,17.93
2023-05-07T20:57:19.696Z,17.95
2023-05-07T20:59:46.372Z,17.90
2023-05-07T21:02:12.988Z,17.84
2023-05-07T21:04:39.523Z,17.82
2023-05-07T21:07:06.417Z,17.86
2023-05-07T21:09:33.021Z,17.80
2023-05-07T21:11:59.621Z,17.76
2023-05-07T21:14:26.033Z,17.76
2023-05-07T21:16:52.743Z,17.74
2023-05-07T21:19:19.265Z,17.75
2023-05-07T21:21:45.673Z,17.75
2023-05-07T21:24:12.396Z,17.69
2023-05-07T21:26:38.807Z,17.63
2023-05-07T21:29:05.259Z,17.70
2023-05-07T21:31:31.931Z,17.68
2023-05-07T21:33:58.549Z,17.68
2023-05-07T21:36:25.198Z,17.71
2023-05-07T21:38:51.783Z,17.61
2023-05-07T21:41:20.330Z,17.60
2023-05-07T21:43:46.747Z,17.59
2023-05-07T21:46:13.572Z,17.60
2023-05-07T21:48:40.088Z,17.61
2023-05-07T21:51:07.596Z,17.61
2023-05-07T21:53:35.013Z,17.63
2023-05-07T21:56:02.850Z,17.60
2023-05-07T21:58:29.502Z,17.56
2023-05-07T22:00:56.050Z,17.63
2023-05-07T22:03:25.899Z,17.61
2023-05-07T22:05:52.401Z,17.55
2023-05-07T22:08:18.753Z,17.56
2023-05-07T22:10:45.248Z,17.53
2023-05-07T22:13:12.127Z,17.50
2023-05-07T22:15:53.258Z,17.47
2023-05-07T22:18:23.564Z,17.50
2023-05-07T22:20:51.701Z,17.50
2023-05-07T22:23:18.185Z,17.47
2023-05-07T22:25:44.673Z,17.47
2023-05-07T22:28:11.210Z,17.39
2023-05-07T22:30:37.831Z,17.37
2023-05-07T22:33:04.499Z,17.24
2023-05-07T22:35:30.968Z,17.20
2023-05-07T22:37:58.352Z,17.19
2023-05-07T22:40:25.028Z,17.21
2023-05-07T22:42:51.491Z,17.30
2023-05-07T22:45:17.950Z,17.13
2023-05-07T22:47:44.504Z,17.08
2023-05-07T22:50:12.343Z,17.15
2023-05-07T22:52:39.004Z,17.22
2023-05-07T22:55:05.963Z,17.25
2023-05-07T22:57:32.482Z,17.25
2023-05-07T22:59:58.941Z,17.20
2023-05-07T23:02:28.829Z,17.17
2023-05-07T23:04:58.837Z,17.10
2023-05-07T23:07:25.324Z,17.03
2023-05-07T23:09:51.858Z,16.99
2023-05-07T23:12:18.254Z,16.95
2023-05-07T23:14:44.882Z,16.93
2023-05-07T23:17:11.640Z,16.89
2023-05-07T23:19:38.218Z,16.87
2023-05-07T23:22:04.682Z,16.99
2023-05-07T23:24:31.302Z,16.98
2023-05-07T23:26:57.784Z,17.05
2023-05-07T23:29:24.231Z,17.12
2023-05-07T23:31:50.962Z,17.15
2023-05-07T23:34:23.557Z,17.15
2023-05-07T23:36:51.544Z,17.17
2023-05-07T23:39:18.697Z,17.15
2023-05-07T23:41:45.449Z,17.19
2023-05-07T23:44:11.941Z,17.24
2023-05-07T23:46:38.463Z,17.25
2023-05-07T23:49:05.099Z,17.14
2023-05-07T23:51:31.477Z,17.17
2023-05-07T23:53:57.984Z,17.16
2023-05-07T23:56:24.593Z,17.18
2023-05-07T23:58:50.994Z,17.16
